sensor_id;sensor_type;location;lat;lon;timestamp;P1;durP1;ratioP1;P2;durP2;ratioP2
17259;SDS011;8746;49.230;9.220;2023-02-22T00:01:14;16.50;;;9.57;;
17259;SDS011;8746;49.230;9.220;2023-02-22T00:03:52;14.37;;;9.50;;
17259;SDS011;8746;49.230;9.220;2023-02-22T00:06:18;14.57;;;9.90;;
17259;SDS011;8746;49.230;9.220;2023-02-22T00:08:49;12.83;;;9.27;;
17259;SDS011;8746;49.230;9.220;2023-02-22T00:11:14;14.30;;;9.80;;
17259;SDS011;8746;49.230;9.220;2023-02-22T00:13:40;14.67;;;9.77;;
17259;SDS011;8746;49.230;9.220;2023-02-22T00:16:12;14.43;;;9.33;;
17259;SDS011;8746;49.230;9.220;2023-02-22T00:18:42;14.93;;;9.00;;
17259;SDS011;8746;49.230;9.220;2023-02-22T00:21:08;23.57;;;12.27;;
17259;SDS011;8746;49.230;9.220;2023-02-22T00:23:35;20.43;;;12.57;;
17259;SDS011;8746;49.230;9.220;2023-02-22T00:26:04;18.67;;;12.23;;
17259;SDS011;8746;49.230;9.220;2023-02-22T00:28:30;17.27;;;11.37;;
17259;SDS011;8746;49.230;9.220;2023-02-22T00:30:55;16.50;;;10.30;;
17259;SDS011;8746;49.230;9.220;2023-02-22T00:33:21;12.23;;;9.00;;
17259;SDS011;8746;49.230;9.220;2023-02-22T00:35:47;12.50;;;9.00;;
17259;SDS011;8746;49.230;9.220;2023-02-22T00:38:14;13.33;;;9.37;;
17259;SDS011;8746;49.230;9.220;2023-02-22T00:40:41;10.03;;;8.40;;
17259;SDS011;8746;49.230;9.220;2023-02-22T00:43:06;12.93;;;8.63;;
17259;SDS011;8746;49.230;9.220;2023-02-22T00:45:32;10.93;;;8.17;;
17259;SDS011;8746;49.230;9.220;2023-02-22T00:47:59;11.23;;;8.80;;
17259;SDS011;8746;49.230;9.220;2023-02-22T00:50:27;12.37;;;8.33;;
17259;SDS011;8746;49.230;9.220;2023-02-22T00:52:54;13.50;;;9.17;;
17259;SDS011;8746;49.230;9.220;2023-02-22T00:55:25;11.30;;;8.00;;
17259;SDS011;8746;49.230;9.220;2023-02-22T00:57:52;11.07;;;8.13;;
17259;SDS011;8746;49.230;9.220;2023-02-22T01:00:20;14.07;;;9.20;;
17259;SDS011;8746;49.230;9.220;2023-02-22T01:02:57;12.43;;;8.50;;
17259;SDS011;8746;49.230;9.220;2023-02-22T01:05:25;9.97;;;7.63;;
17259;SDS011;8746;49.230;9.220;2023-02-22T01:07:52;10.50;;;7.97;;
17259;SDS011;8746;49.230;9.220;2023-02-22T01:10:20;11.43;;;7.83;;
17259;SDS011;8746;49.230;9.220;2023-02-22T01:12:47;11.80;;;8.00;;
17259;SDS011;8746;49.230;9.220;2023-02-22T01:15:14;10.60;;;8.37;;
17259;SDS011;8746;49.230;9.220;2023-02-22T01:17:40;9.97;;;8.10;;
17259;SDS011;8746;49.230;9.220;2023-02-22T01:20:08;9.87;;;7.97;;
17259;SDS011;8746;49.230;9.220;2023-02-22T01:22:38;12.40;;;7.77;;
17259;SDS011;8746;49.230;9.220;2023-02-22T01:25:06;11.73;;;8.03;;
17259;SDS011;8746;49.230;9.220;2023-02-22T01:27:33;12.23;;;8.97;;
17259;SDS011;8746;49.230;9.220;2023-02-22T01:29:59;10.77;;;8.40;;
17259;SDS011;8746;49.230;9.220;2023-02-22T01:32:25;14.83;;;8.13;;
17259;SDS011;8746;49.230;9.220;2023-02-22T01:34:53;10.63;;;7.93;;
17259;SDS011;8746;49.230;9.220;2023-02-22T01:37:19;11.43;;;7.70;;
17259;SDS011;8746;49.230;9.220;2023-02-22T01:39:44;9.67;;;7.43;;
17259;SDS011;8746;49.230;9.220;2023-02-22T01:42:10;12.07;;;8.13;;
17259;SDS011;8746;49.230;9.220;2023-02-22T01:44:36;13.03;;;9.00;;
17259;SDS011;8746;49.230;9.220;2023-02-22T01:47:04;11.27;;;8.17;;
17259;SDS011;8746;49.230;9.220;2023-02-22T01:49:38;9.00;;;7.93;;
17259;SDS011;8746;49.230;9.220;2023-02-22T01:52:11;11.30;;;7.57;;
17259;SDS011;8746;49.230;9.220;2023-02-22T01:54:43;8.93;;;7.13;;
17259;SDS011;8746;49.230;9.220;2023-02-22T01:57:15;9.87;;;7.90;;
17259;SDS011;8746;49.230;9.220;2023-02-22T01:59:47;9.00;;;7.20;;
17259;SDS011;8746;49.230;9.220;2023-02-22T02:02:15;10.33;;;7.53;;
17259;SDS011;8746;49.230;9.220;2023-02-22T02:04:42;11.53;;;7.47;;
17259;SDS011;8746;49.230;9.220;2023-02-22T02:07:10;11.30;;;8.70;;
17259;SDS011;8746;49.230;9.220;2023-02-22T02:12:16;12.07;;;7.77;;
17259;SDS011;8746;49.230;9.220;2023-02-22T02:14:43;9.97;;;7.90;;
17259;SDS011;8746;49.230;9.220;2023-02-22T02:17:09;9.70;;;7.80;;
17259;SDS011;8746;49.230;9.220;2023-02-22T02:22:29;11.20;;;7.07;;
17259;SDS011;8746;49.230;9.220;2023-02-22T02:38:48;10.27;;;8.00;;
17259;SDS011;8746;49.230;9.220;2023-02-22T02:41:34;10.57;;;7.70;;
17259;SDS011;8746;49.230;9.220;2023-02-22T02:46:34;12.97;;;8.53;;
17259;SDS011;8746;49.230;9.220;2023-02-22T02:49:05;12.90;;;8.10;;
17259;SDS011;8746;49.230;9.220;2023-02-22T02:51:39;11.20;;;7.90;;
17259;SDS011;8746;49.230;9.220;2023-02-22T02:54:08;11.20;;;8.03;;
17259;SDS011;8746;49.230;9.220;2023-02-22T02:56:35;13.27;;;8.10;;
17259;SDS011;8746;49.230;9.220;2023-02-22T02:59:00;12.93;;;8.73;;
17259;SDS011;8746;49.230;9.220;2023-02-22T03:01:32;10.80;;;8.10;;
17259;SDS011;8746;49.230;9.220;2023-02-22T03:18:24;10.43;;;8.33;;
17259;SDS011;8746;49.230;9.220;2023-02-22T03:26:42;9.90;;;7.33;;
17259;SDS011;8746;49.230;9.220;2023-02-22T03:29:16;10.67;;;8.30;;
17259;SDS011;8746;49.230;9.220;2023-02-22T03:31:45;9.43;;;7.23;;
17259;SDS011;8746;49.230;9.220;2023-02-22T03:34:19;8.73;;;7.43;;
17259;SDS011;8746;49.230;9.220;2023-02-22T03:36:51;10.43;;;7.57;;
17259;SDS011;8746;49.230;9.220;2023-02-22T03:39:21;10.67;;;7.70;;
17259;SDS011;8746;49.230;9.220;2023-02-22T03:41:55;10.60;;;7.70;;
17259;SDS011;8746;49.230;9.220;2023-02-22T03:44:27;13.73;;;7.93;;
17259;SDS011;8746;49.230;9.220;2023-02-22T03:46:59;12.57;;;8.43;;
17259;SDS011;8746;49.230;9.220;2023-02-22T03:49:31;12.97;;;8.67;;
17259;SDS011;8746;49.230;9.220;2023-02-22T03:52:00;13.47;;;9.53;;
17259;SDS011;8746;49.230;9.220;2023-02-22T03:54:28;9.00;;;7.20;;
17259;SDS011;8746;49.230;9.220;2023-02-22T03:57:16;10.20;;;7.47;;
17259;SDS011;8746;49.230;9.220;2023-02-22T03:59:47;9.27;;;7.33;;
17259;SDS011;8746;49.230;9.220;2023-02-22T04:02:12;7.90;;;6.80;;
17259;SDS011;8746;49.230;9.220;2023-02-22T04:04:38;10.43;;;7.57;;
17259;SDS011;8746;49.230;9.220;2023-02-22T04:07:03;8.67;;;7.13;;
17259;SDS011;8746;49.230;9.220;2023-02-22T04:09:29;8.37;;;6.97;;
17259;SDS011;8746;49.230;9.220;2023-02-22T04:11:54;9.90;;;7.67;;
17259;SDS011;8746;49.230;9.220;2023-02-22T04:14:19;10.17;;;8.17;;
17259;SDS011;8746;49.230;9.220;2023-02-22T04:16:45;11.50;;;8.10;;
17259;SDS011;8746;49.230;9.220;2023-02-22T04:19:10;9.07;;;7.40;;
17259;SDS011;8746;49.230;9.220;2023-02-22T04:21:35;9.00;;;7.77;;
17259;SDS011;8746;49.230;9.220;2023-02-22T04:24:01;8.77;;;6.93;;
17259;SDS011;8746;49.230;9.220;2023-02-22T04:26:26;9.60;;;7.67;;
17259;SDS011;8746;49.230;9.220;2023-02-22T04:28:52;9.40;;;7.43;;
17259;SDS011;8746;49.230;9.220;2023-02-22T04:31:17;10.00;;;7.43;;
17259;SDS011;8746;49.230;9.220;2023-02-22T04:33:42;11.57;;;7.60;;
17259;SDS011;8746;49.230;9.220;2023-02-22T04:36:08;8.37;;;7.03;;
17259;SDS011;8746;49.230;9.220;2023-02-22T04:38:34;8.07;;;6.57;;
17259;SDS011;8746;49.230;9.220;2023-02-22T04:41:00;9.13;;;6.73;;
17259;SDS011;8746;49.230;9.220;2023-02-22T04:43:26;8.00;;;6.70;;
17259;SDS011;8746;49.230;9.220;2023-02-22T04:45:51;9.87;;;6.93;;
17259;SDS011;8746;49.230;9.220;2023-02-22T04:48:17;8.30;;;6.67;;
17259;SDS011;8746;49.230;9.220;2023-02-22T04:50:42;9.63;;;7.30;;
17259;SDS011;8746;49.230;9.220;2023-02-22T04:53:08;11.23;;;7.10;;
17259;SDS011;8746;49.230;9.220;2023-02-22T04:55:33;8.07;;;6.50;;
17259;SDS011;8746;49.230;9.220;2023-02-22T04:57:58;7.60;;;6.53;;
17259;SDS011;8746;49.230;9.220;2023-02-22T05:00:24;10.90;;;7.17;;
17259;SDS011;8746;49.230;9.220;2023-02-22T05:02:51;9.43;;;7.70;;
17259;SDS011;8746;49.230;9.220;2023-02-22T05:05:17;7.70;;;6.83;;
17259;SDS011;8746;49.230;9.220;2023-02-22T05:07:45;9.60;;;6.23;;
17259;SDS011;8746;49.230;9.220;2023-02-22T05:10:12;9.80;;;7.17;;
17259;SDS011;8746;49.230;9.220;2023-02-22T05:12:37;9.30;;;7.30;;
17259;SDS011;8746;49.230;9.220;2023-02-22T05:15:04;8.97;;;7.07;;
17259;SDS011;8746;49.230;9.220;2023-02-22T05:17:30;9.00;;;7.47;;
17259;SDS011;8746;49.230;9.220;2023-02-22T05:19:55;12.13;;;7.00;;
17259;SDS011;8746;49.230;9.220;2023-02-22T05:22:20;8.67;;;6.93;;
17259;SDS011;8746;49.230;9.220;2023-02-22T05:24:46;8.70;;;7.33;;
17259;SDS011;8746;49.230;9.220;2023-02-22T05:27:11;8.70;;;7.07;;
17259;SDS011;8746;49.230;9.220;2023-02-22T05:29:36;10.03;;;7.67;;
17259;SDS011;8746;49.230;9.220;2023-02-22T05:32:02;10.17;;;7.10;;
17259;SDS011;8746;49.230;9.220;2023-02-22T05:34:28;8.80;;;7.77;;
17259;SDS011;8746;49.230;9.220;2023-02-22T05:36:54;9.80;;;7.70;;
17259;SDS011;8746;49.230;9.220;2023-02-22T05:39:20;9.23;;;7.80;;
17259;SDS011;8746;49.230;9.220;2023-02-22T05:41:45;11.93;;;9.13;;
17259;SDS011;8746;49.230;9.220;2023-02-22T05:44:11;14.30;;;9.90;;
17259;SDS011;8746;49.230;9.220;2023-02-22T05:46:36;12.03;;;9.33;;
17259;SDS011;8746;49.230;9.220;2023-02-22T05:49:02;10.10;;;8.47;;
17259;SDS011;8746;49.230;9.220;2023-02-22T05:51:27;10.40;;;7.53;;
17259;SDS011;8746;49.230;9.220;2023-02-22T05:53:53;10.23;;;7.40;;
17259;SDS011;8746;49.230;9.220;2023-02-22T05:56:25;9.40;;;7.80;;
17259;SDS011;8746;49.230;9.220;2023-02-22T05:58:51;13.00;;;8.13;;
17259;SDS011;8746;49.230;9.220;2023-02-22T06:01:17;8.23;;;7.30;;
17259;SDS011;8746;49.230;9.220;2023-02-22T06:03:46;8.83;;;7.17;;
17259;SDS011;8746;49.230;9.220;2023-02-22T06:06:12;8.57;;;7.67;;
17259;SDS011;8746;49.230;9.220;2023-02-22T06:08:38;10.40;;;7.43;;
17259;SDS011;8746;49.230;9.220;2023-02-22T06:11:03;8.67;;;6.80;;
17259;SDS011;8746;49.230;9.220;2023-02-22T06:13:29;8.70;;;7.20;;
17259;SDS011;8746;49.230;9.220;2023-02-22T06:15:54;8.70;;;7.60;;
17259;SDS011;8746;49.230;9.220;2023-02-22T06:18:19;11.37;;;6.80;;
17259;SDS011;8746;49.230;9.220;2023-02-22T06:20:45;9.80;;;6.97;;
17259;SDS011;8746;49.230;9.220;2023-02-22T06:23:10;8.93;;;6.90;;
17259;SDS011;8746;49.230;9.220;2023-02-22T06:25:36;10.23;;;7.87;;
17259;SDS011;8746;49.230;9.220;2023-02-22T06:28:01;10.67;;;8.73;;
17259;SDS011;8746;49.230;9.220;2023-02-22T06:30:27;11.17;;;8.80;;
17259;SDS011;8746;49.230;9.220;2023-02-22T06:32:54;11.37;;;9.17;;
17259;SDS011;8746;49.230;9.220;2023-02-22T06:35:20;11.87;;;9.43;;
17259;SDS011;8746;49.230;9.220;2023-02-22T06:37:46;10.77;;;8.93;;
17259;SDS011;8746;49.230;9.220;2023-02-22T06:40:11;9.73;;;8.00;;
17259;SDS011;8746;49.230;9.220;2023-02-22T06:42:38;9.10;;;7.70;;
17259;SDS011;8746;49.230;9.220;2023-02-22T06:45:03;9.70;;;7.97;;
17259;SDS011;8746;49.230;9.220;2023-02-22T06:47:29;9.47;;;7.97;;
17259;SDS011;8746;49.230;9.220;2023-02-22T06:49:55;9.97;;;8.43;;
17259;SDS011;8746;49.230;9.220;2023-02-22T06:52:22;9.30;;;8.10;;
17259;SDS011;8746;49.230;9.220;2023-02-22T06:54:48;9.03;;;7.70;;
17259;SDS011;8746;49.230;9.220;2023-02-22T06:57:14;9.50;;;8.17;;
17259;SDS011;8746;49.230;9.220;2023-02-22T06:59:39;8.80;;;7.90;;
17259;SDS011;8746;49.230;9.220;2023-02-22T07:02:05;10.90;;;9.00;;
17259;SDS011;8746;49.230;9.220;2023-02-22T07:04:30;9.20;;;8.20;;
17259;SDS011;8746;49.230;9.220;2023-02-22T07:06:55;10.60;;;8.57;;
17259;SDS011;8746;49.230;9.220;2023-02-22T07:09:21;8.93;;;8.03;;
17259;SDS011;8746;49.230;9.220;2023-02-22T07:11:46;9.90;;;8.60;;
17259;SDS011;8746;49.230;9.220;2023-02-22T07:14:12;9.40;;;8.40;;
17259;SDS011;8746;49.230;9.220;2023-02-22T07:16:37;11.33;;;8.13;;
17259;SDS011;8746;49.230;9.220;2023-02-22T07:19:03;11.20;;;9.00;;
17259;SDS011;8746;49.230;9.220;2023-02-22T07:21:28;12.00;;;8.80;;
17259;SDS011;8746;49.230;9.220;2023-02-22T07:23:55;11.00;;;8.70;;
17259;SDS011;8746;49.230;9.220;2023-02-22T07:26:22;14.60;;;8.60;;
17259;SDS011;8746;49.230;9.220;2023-02-22T07:28:49;20.37;;;9.63;;
17259;SDS011;8746;49.230;9.220;2023-02-22T07:31:15;19.70;;;9.57;;
17259;SDS011;8746;49.230;9.220;2023-02-22T07:33:46;14.33;;;8.87;;
17259;SDS011;8746;49.230;9.220;2023-02-22T07:36:14;12.13;;;9.30;;
17259;SDS011;8746;49.230;9.220;2023-02-22T07:38:42;13.47;;;9.50;;
17259;SDS011;8746;49.230;9.220;2023-02-22T07:41:10;13.73;;;9.53;;
17259;SDS011;8746;49.230;9.220;2023-02-22T07:43:36;12.07;;;9.17;;
17259;SDS011;8746;49.230;9.220;2023-02-22T07:46:02;12.37;;;9.23;;
17259;SDS011;8746;49.230;9.220;2023-02-22T07:48:27;12.33;;;9.37;;
17259;SDS011;8746;49.230;9.220;2023-02-22T07:50:54;12.87;;;10.13;;
17259;SDS011;8746;49.230;9.220;2023-02-22T07:53:21;12.43;;;9.97;;
17259;SDS011;8746;49.230;9.220;2023-02-22T07:55:54;13.23;;;10.00;;
17259;SDS011;8746;49.230;9.220;2023-02-22T07:58:22;15.00;;;10.97;;
17259;SDS011;8746;49.230;9.220;2023-02-22T08:00:49;15.47;;;10.83;;
17259;SDS011;8746;49.230;9.220;2023-02-22T08:03:16;17.93;;;11.00;;
17259;SDS011;8746;49.230;9.220;2023-02-22T08:05:47;15.77;;;10.80;;
17259;SDS011;8746;49.230;9.220;2023-02-22T08:08:15;13.90;;;10.37;;
17259;SDS011;8746;49.230;9.220;2023-02-22T08:10:41;13.80;;;10.70;;
17259;SDS011;8746;49.230;9.220;2023-02-22T08:13:07;14.53;;;10.07;;
17259;SDS011;8746;49.230;9.220;2023-02-22T08:15:33;16.33;;;10.47;;
17259;SDS011;8746;49.230;9.220;2023-02-22T08:18:02;12.77;;;10.30;;
17259;SDS011;8746;49.230;9.220;2023-02-22T08:20:30;13.70;;;9.97;;
17259;SDS011;8746;49.230;9.220;2023-02-22T08:22:56;18.40;;;12.37;;
17259;SDS011;8746;49.230;9.220;2023-02-22T08:25:23;15.40;;;11.50;;
17259;SDS011;8746;49.230;9.220;2023-02-22T08:27:52;16.03;;;11.27;;
17259;SDS011;8746;49.230;9.220;2023-02-22T08:30:24;14.57;;;10.93;;
17259;SDS011;8746;49.230;9.220;2023-02-22T08:32:49;13.97;;;11.20;;
17259;SDS011;8746;49.230;9.220;2023-02-22T08:35:16;14.07;;;10.90;;
17259;SDS011;8746;49.230;9.220;2023-02-22T08:37:44;13.80;;;10.77;;
17259;SDS011;8746;49.230;9.220;2023-02-22T08:40:11;14.27;;;10.87;;
17259;SDS011;8746;49.230;9.220;2023-02-22T08:42:37;14.60;;;10.20;;
17259;SDS011;8746;49.230;9.220;2023-02-22T08:45:03;12.97;;;10.33;;
17259;SDS011;8746;49.230;9.220;2023-02-22T08:47:29;13.37;;;10.67;;
17259;SDS011;8746;49.230;9.220;2023-02-22T08:49:54;14.13;;;10.93;;
17259;SDS011;8746;49.230;9.220;2023-02-22T08:52:20;14.20;;;10.83;;
17259;SDS011;8746;49.230;9.220;2023-02-22T08:54:45;15.13;;;11.30;;
17259;SDS011;8746;49.230;9.220;2023-02-22T08:57:12;15.60;;;12.07;;
17259;SDS011;8746;49.230;9.220;2023-02-22T08:59:38;15.80;;;10.80;;
17259;SDS011;8746;49.230;9.220;2023-02-22T09:02:03;15.40;;;10.80;;
17259;SDS011;8746;49.230;9.220;2023-02-22T09:04:29;14.20;;;11.17;;
17259;SDS011;8746;49.230;9.220;2023-02-22T09:06:55;12.60;;;11.07;;
17259;SDS011;8746;49.230;9.220;2023-02-22T09:09:20;17.03;;;12.13;;
17259;SDS011;8746;49.230;9.220;2023-02-22T09:11:48;14.93;;;12.30;;
17259;SDS011;8746;49.230;9.220;2023-02-22T09:14:14;15.17;;;11.60;;
17259;SDS011;8746;49.230;9.220;2023-02-22T09:16:41;13.30;;;11.53;;
17259;SDS011;8746;49.230;9.220;2023-02-22T09:19:07;15.23;;;11.03;;
17259;SDS011;8746;49.230;9.220;2023-02-22T09:21:33;16.83;;;11.27;;
17259;SDS011;8746;49.230;9.220;2023-02-22T09:23:58;13.13;;;11.30;;
17259;SDS011;8746;49.230;9.220;2023-02-22T09:26:32;13.40;;;11.40;;
17259;SDS011;8746;49.230;9.220;2023-02-22T09:28:57;14.07;;;11.53;;
17259;SDS011;8746;49.230;9.220;2023-02-22T09:31:22;15.10;;;11.77;;
17259;SDS011;8746;49.230;9.220;2023-02-22T09:33:48;16.13;;;11.60;;
17259;SDS011;8746;49.230;9.220;2023-02-22T09:36:13;14.90;;;11.27;;
17259;SDS011;8746;49.230;9.220;2023-02-22T09:38:39;15.33;;;11.63;;
17259;SDS011;8746;49.230;9.220;2023-02-22T09:41:12;18.27;;;11.77;;
17259;SDS011;8746;49.230;9.220;2023-02-22T09:43:47;13.97;;;10.87;;
17259;SDS011;8746;49.230;9.220;2023-02-22T09:46:36;12.63;;;10.87;;
17259;SDS011;8746;49.230;9.220;2023-02-22T09:49:08;14.43;;;11.07;;
17259;SDS011;8746;49.230;9.220;2023-02-22T09:51:40;11.60;;;10.40;;
17259;SDS011;8746;49.230;9.220;2023-02-22T09:54:10;12.40;;;10.80;;
17259;SDS011;8746;49.230;9.220;2023-02-22T09:56:41;12.80;;;10.50;;
17259;SDS011;8746;49.230;9.220;2023-02-22T09:59:10;15.93;;;11.20;;
17259;SDS011;8746;49.230;9.220;2023-02-22T10:01:40;13.50;;;10.70;;
17259;SDS011;8746;49.230;9.220;2023-02-22T10:06:43;13.87;;;9.27;;
17259;SDS011;8746;49.230;9.220;2023-02-22T10:09:46;11.40;;;9.20;;
17259;SDS011;8746;49.230;9.220;2023-02-22T10:12:15;10.80;;;9.43;;
17259;SDS011;8746;49.230;9.220;2023-02-22T10:15:01;10.47;;;9.17;;
17259;SDS011;8746;49.230;9.220;2023-02-22T10:17:39;12.07;;;9.10;;
17259;SDS011;8746;49.230;9.220;2023-02-22T10:20:52;13.30;;;9.03;;
17259;SDS011;8746;49.230;9.220;2023-02-22T10:23:22;11.37;;;8.93;;
17259;SDS011;8746;49.230;9.220;2023-02-22T10:25:54;12.00;;;8.70;;
17259;SDS011;8746;49.230;9.220;2023-02-22T10:28:33;10.00;;;8.97;;
17259;SDS011;8746;49.230;9.220;2023-02-22T10:31:06;11.70;;;8.57;;
17259;SDS011;8746;49.230;9.220;2023-02-22T10:33:35;14.27;;;9.53;;
17259;SDS011;8746;49.230;9.220;2023-02-22T10:36:05;11.20;;;8.93;;
17259;SDS011;8746;49.230;9.220;2023-02-22T10:38:38;10.50;;;8.50;;
17259;SDS011;8746;49.230;9.220;2023-02-22T10:43:36;10.30;;;8.90;;
17259;SDS011;8746;49.230;9.220;2023-02-22T10:46:04;10.83;;;8.97;;
17259;SDS011;8746;49.230;9.220;2023-02-22T10:48:33;10.07;;;8.23;;
17259;SDS011;8746;49.230;9.220;2023-02-22T10:51:03;11.67;;;8.60;;
17259;SDS011;8746;49.230;9.220;2023-02-22T10:53:32;9.30;;;8.30;;
17259;SDS011;8746;49.230;9.220;2023-02-22T10:58:49;12.57;;;8.47;;
17259;SDS011;8746;49.230;9.220;2023-02-22T11:01:18;9.17;;;8.17;;
17259;SDS011;8746;49.230;9.220;2023-02-22T11:06:23;10.00;;;9.00;;
17259;SDS011;8746;49.230;9.220;2023-02-22T11:08:49;9.50;;;7.97;;
17259;SDS011;8746;49.230;9.220;2023-02-22T11:11:23;8.90;;;7.83;;
17259;SDS011;8746;49.230;9.220;2023-02-22T11:13:55;12.60;;;8.23;;
17259;SDS011;8746;49.230;9.220;2023-02-22T11:16:34;9.95;;;8.93;;
17259;SDS011;8746;49.230;9.220;2023-02-22T11:19:01;9.60;;;8.10;;
17259;SDS011;8746;49.230;9.220;2023-02-22T11:21:30;9.90;;;8.25;;
17259;SDS011;8746;49.230;9.220;2023-02-22T11:24:03;9.68;;;7.82;;
17259;SDS011;8746;49.230;9.220;2023-02-22T11:26:41;8.85;;;7.95;;
17259;SDS011;8746;49.230;9.220;2023-02-22T11:29:17;9.57;;;7.60;;
17259;SDS011;8746;49.230;9.220;2023-02-22T11:31:46;11.30;;;7.97;;
17259;SDS011;8746;49.230;9.220;2023-02-22T11:39:46;8.48;;;7.65;;
17259;SDS011;8746;49.230;9.220;2023-02-22T11:42:33;11.05;;;7.95;;
17259;SDS011;8746;49.230;9.220;2023-02-22T11:48:00;11.67;;;7.90;;
17259;SDS011;8746;49.230;9.220;2023-02-22T11:50:30;14.47;;;9.30;;
17259;SDS011;8746;49.230;9.220;2023-02-22T11:55:33;9.00;;;7.57;;
17259;SDS011;8746;49.230;9.220;2023-02-22T12:00:52;10.30;;;8.23;;
17259;SDS011;8746;49.230;9.220;2023-02-22T12:03:37;10.13;;;8.37;;
17259;SDS011;8746;49.230;9.220;2023-02-22T12:09:21;9.63;;;8.00;;
17259;SDS011;8746;49.230;9.220;2023-02-22T12:17:33;10.00;;;7.80;;
17259;SDS011;8746;49.230;9.220;2023-02-22T12:20:34;9.37;;;8.13;;
17259;SDS011;8746;49.230;9.220;2023-02-22T12:28:39;11.70;;;8.10;;
17259;SDS011;8746;49.230;9.220;2023-02-22T12:36:18;11.40;;;8.20;;
17259;SDS011;8746;49.230;9.220;2023-02-22T12:38:53;9.13;;;8.20;;
17259;SDS011;8746;49.230;9.220;2023-02-22T12:41:35;13.13;;;8.60;;
17259;SDS011;8746;49.230;9.220;2023-02-22T12:47:01;9.77;;;8.03;;
17259;SDS011;8746;49.230;9.220;2023-02-22T12:49:33;12.67;;;8.27;;
17259;SDS011;8746;49.230;9.220;2023-02-22T12:54:45;9.70;;;7.60;;
17259;SDS011;8746;49.230;9.220;2023-02-22T13:00:14;9.07;;;7.77;;
17259;SDS011;8746;49.230;9.220;2023-02-22T13:03:04;15.40;;;8.77;;
17259;SDS011;8746;49.230;9.220;2023-02-22T13:05:47;9.07;;;7.37;;
17259;SDS011;8746;49.230;9.220;2023-02-22T13:08:22;11.63;;;9.17;;
17259;SDS011;8746;49.230;9.220;2023-02-22T13:11:00;9.30;;;7.97;;
17259;SDS011;8746;49.230;9.220;2023-02-22T13:19:02;8.43;;;7.53;;
17259;SDS011;8746;49.230;9.220;2023-02-22T13:21:46;9.63;;;7.53;;
17259;SDS011;8746;49.230;9.220;2023-02-22T13:24:18;9.50;;;7.73;;
17259;SDS011;8746;49.230;9.220;2023-02-22T13:26:51;10.50;;;7.97;;
17259;SDS011;8746;49.230;9.220;2023-02-22T13:29:26;10.83;;;7.77;;
17259;SDS011;8746;49.230;9.220;2023-02-22T13:37:36;11.07;;;7.93;;
17259;SDS011;8746;49.230;9.220;2023-02-22T13:51:30;8.40;;;7.57;;
17259;SDS011;8746;49.230;9.220;2023-02-22T13:54:33;12.50;;;8.43;;
17259;SDS011;8746;49.230;9.220;2023-02-22T13:57:02;12.43;;;7.63;;
17259;SDS011;8746;49.230;9.220;2023-02-22T13:59:41;9.27;;;8.00;;
17259;SDS011;8746;49.230;9.220;2023-02-22T14:02:10;8.67;;;7.37;;
17259;SDS011;8746;49.230;9.220;2023-02-22T14:04:56;11.70;;;7.93;;
17259;SDS011;8746;49.230;9.220;2023-02-22T14:09:53;11.20;;;7.73;;
17259;SDS011;8746;49.230;9.220;2023-02-22T14:15:14;10.47;;;8.00;;
17259;SDS011;8746;49.230;9.220;2023-02-22T14:17:44;10.40;;;8.00;;
17259;SDS011;8746;49.230;9.220;2023-02-22T14:22:38;10.67;;;8.40;;
17259;SDS011;8746;49.230;9.220;2023-02-22T14:25:05;9.70;;;7.57;;
17259;SDS011;8746;49.230;9.220;2023-02-22T14:31:10;9.57;;;8.10;;
17259;SDS011;8746;49.230;9.220;2023-02-22T14:36:23;11.03;;;8.00;;
17259;SDS011;8746;49.230;9.220;2023-02-22T14:39:16;10.35;;;8.30;;
17259;SDS011;8746;49.230;9.220;2023-02-22T14:41:54;9.75;;;7.85;;
17259;SDS011;8746;49.230;9.220;2023-02-22T14:44:27;11.05;;;7.97;;
17259;SDS011;8746;49.230;9.220;2023-02-22T14:47:00;14.10;;;8.18;;
17259;SDS011;8746;49.230;9.220;2023-02-22T14:49:30;9.35;;;7.47;;
17259;SDS011;8746;49.230;9.220;2023-02-22T14:52:03;13.07;;;7.75;;
17259;SDS011;8746;49.230;9.220;2023-02-22T14:54:37;12.35;;;8.52;;
17259;SDS011;8746;49.230;9.220;2023-02-22T14:57:18;9.15;;;7.80;;
17259;SDS011;8746;49.230;9.220;2023-02-22T15:02:25;9.40;;;7.57;;
17259;SDS011;8746;49.230;9.220;2023-02-22T15:04:54;8.68;;;7.78;;
17259;SDS011;8746;49.230;9.220;2023-02-22T15:07:24;11.23;;;8.47;;
17259;SDS011;8746;49.230;9.220;2023-02-22T15:10:03;11.33;;;8.20;;
17259;SDS011;8746;49.230;9.220;2023-02-22T15:12:31;9.23;;;7.93;;
17259;SDS011;8746;49.230;9.220;2023-02-22T15:15:10;8.83;;;7.80;;
17259;SDS011;8746;49.230;9.220;2023-02-22T15:17:40;11.47;;;7.50;;
17259;SDS011;8746;49.230;9.220;2023-02-22T15:20:06;10.20;;;7.50;;
17259;SDS011;8746;49.230;9.220;2023-02-22T15:22:36;9.33;;;7.50;;
17259;SDS011;8746;49.230;9.220;2023-02-22T15:25:03;8.70;;;7.80;;
17259;SDS011;8746;49.230;9.220;2023-02-22T15:27:30;10.87;;;7.90;;
17259;SDS011;8746;49.230;9.220;2023-02-22T15:30:02;9.52;;;8.07;;
17259;SDS011;8746;49.230;9.220;2023-02-22T15:35:20;9.20;;;7.47;;
17259;SDS011;8746;49.230;9.220;2023-02-22T15:38:25;9.83;;;7.77;;
17259;SDS011;8746;49.230;9.220;2023-02-22T15:40:45;11.07;;;8.37;;
17259;SDS011;8746;49.230;9.220;2023-02-22T15:43:21;9.73;;;8.37;;
17259;SDS011;8746;49.230;9.220;2023-02-22T15:45:52;9.23;;;8.23;;
17259;SDS011;8746;49.230;9.220;2023-02-22T15:48:18;11.37;;;8.33;;
17259;SDS011;8746;49.230;9.220;2023-02-22T15:50:57;10.20;;;8.27;;
17259;SDS011;8746;49.230;9.220;2023-02-22T15:53:39;9.20;;;7.93;;
17259;SDS011;8746;49.230;9.220;2023-02-22T15:56:13;9.53;;;8.47;;
17259;SDS011;8746;49.230;9.220;2023-02-22T15:58:42;10.57;;;8.50;;
17259;SDS011;8746;49.230;9.220;2023-02-22T16:01:13;10.77;;;8.77;;
17259;SDS011;8746;49.230;9.220;2023-02-22T16:06:30;11.57;;;8.90;;
17259;SDS011;8746;49.230;9.220;2023-02-22T16:09:00;10.90;;;8.17;;
17259;SDS011;8746;49.230;9.220;2023-02-22T16:11:49;9.77;;;8.50;;
17259;SDS011;8746;49.230;9.220;2023-02-22T16:19:37;11.00;;;8.23;;
17259;SDS011;8746;49.230;9.220;2023-02-22T16:22:05;9.90;;;8.40;;
17259;SDS011;8746;49.230;9.220;2023-02-22T16:24:37;10.93;;;8.70;;
17259;SDS011;8746;49.230;9.220;2023-02-22T16:29:39;10.60;;;8.33;;
17259;SDS011;8746;49.230;9.220;2023-02-22T16:32:05;10.80;;;8.83;;
17259;SDS011;8746;49.230;9.220;2023-02-22T16:34:30;12.07;;;8.50;;
17259;SDS011;8746;49.230;9.220;2023-02-22T16:36:56;12.77;;;8.63;;
17259;SDS011;8746;49.230;9.220;2023-02-22T16:41:55;10.27;;;8.17;;
17259;SDS011;8746;49.230;9.220;2023-02-22T16:44:23;11.77;;;7.67;;
17259;SDS011;8746;49.230;9.220;2023-02-22T16:46:52;12.87;;;8.70;;
17259;SDS011;8746;49.230;9.220;2023-02-22T16:49:19;12.30;;;7.93;;
17259;SDS011;8746;49.230;9.220;2023-02-22T16:51:48;13.93;;;8.87;;
17259;SDS011;8746;49.230;9.220;2023-02-22T16:54:19;13.13;;;9.27;;
17259;SDS011;8746;49.230;9.220;2023-02-22T16:56:48;11.33;;;8.30;;
17259;SDS011;8746;49.230;9.220;2023-02-22T16:59:13;14.97;;;9.87;;
17259;SDS011;8746;49.230;9.220;2023-02-22T17:01:40;14.57;;;9.67;;
17259;SDS011;8746;49.230;9.220;2023-02-22T17:04:16;17.53;;;12.30;;
17259;SDS011;8746;49.230;9.220;2023-02-22T17:06:46;19.63;;;13.17;;
17259;SDS011;8746;49.230;9.220;2023-02-22T17:09:12;13.63;;;11.33;;
17259;SDS011;8746;49.230;9.220;2023-02-22T17:11:39;16.37;;;10.60;;
17259;SDS011;8746;49.230;9.220;2023-02-22T17:14:06;13.03;;;10.40;;
17259;SDS011;8746;49.230;9.220;2023-02-22T17:16:31;13.40;;;9.60;;
17259;SDS011;8746;49.230;9.220;2023-02-22T17:18:56;13.00;;;9.80;;
17259;SDS011;8746;49.230;9.220;2023-02-22T17:21:22;11.67;;;8.80;;
17259;SDS011;8746;49.230;9.220;2023-02-22T17:23:47;13.20;;;10.03;;
17259;SDS011;8746;49.230;9.220;2023-02-22T17:26:13;12.83;;;8.73;;
17259;SDS011;8746;49.230;9.220;2023-02-22T17:28:40;12.53;;;9.50;;
17259;SDS011;8746;49.230;9.220;2023-02-22T17:31:09;13.40;;;9.50;;
17259;SDS011;8746;49.230;9.220;2023-02-22T17:33:42;12.27;;;8.63;;